sensor_id;sensor_type;location;lat;lon;timestamp;pressure;altitude;pressure_sealevel;temperature;humidity
5996;BME280;3026;53.612;7.278;2023-03-16T00:00:49;101785.22;;;1.57;100.00
5996;BME280;3026;53.612;7.278;2023-03-16T00:03:15;101788.00;;;1.55;100.00
5996;BME280;3026;53.612;7.278;2023-03-16T00:05:45;101781.84;;;1.53;100.00
5996;BME280;3026;53.612;7.278;2023-03-16T00:08:12;101772.06;;;1.52;100.00
5996;BME280;3026;53.612;7.278;2023-03-16T00:10:39;101773.78;;;1.53;100.00
5996;BME280;3026;53.612;7.278;2023-03-16T00:13:12;101773.78;;;1.53;100.00
5996;BME280;3026;53.612;7.278;2023-03-16T00:15:39;101768.41;;;1.53;100.00
5996;BME280;3026;53.612;7.278;2023-03-16T00:18:06;101757.66;;;1.53;100.00
5996;BME280;3026;53.612;7.278;2023-03-16T00:20:33;101763.03;;;1.53;100.00
5996;BME280;3026;53.612;7.278;2023-03-16T00:23:01;101749.84;;;1.49;100.00
5996;BME280;3026;53.612;7.278;2023-03-16T00:25:28;101750.56;;;1.52;100.00
5996;BME280;3026;53.612;7.278;2023-03-16T00:27:57;101750.56;;;1.52;100.00
5996;BME280;3026;53.612;7.278;2023-03-16T00:30:27;101752.28;;;1.53;100.00
5996;BME280;3026;53.612;7.278;2023-03-16T00:32:53;101755.94;;;1.52;100.00
5996;BME280;3026;53.612;7.278;2023-03-16T00:35:20;101756.09;;;1.49;100.00
5996;BME280;3026;53.612;7.278;2023-03-16T00:37:47;101766.69;;;1.52;100.00
5996;BME280;3026;53.612;7.278;2023-03-16T00:40:15;101757.66;;;1.53;100.00
5996;BME280;3026;53.612;7.278;2023-03-16T00:42:42;101750.72;;;1.49;100.00
5996;BME280;3026;53.612;7.278;2023-03-16T00:45:09;101757.81;;;1.50;100.00
5996;BME280;3026;53.612;7.278;2023-03-16T00:47:36;101754.19;;;1.51;100.00
5996;BME280;3026;53.612;7.278;2023-03-16T00:50:04;101757.81;;;1.50;100.00
5996;BME280;3026;53.612;7.278;2023-03-16T00:52:31;101755.13;;;1.50;100.00
5996;BME280;3026;53.612;7.278;2023-03-16T00:54:59;101748.97;;;1.48;100.00
5996;BME280;3026;53.612;7.278;2023-03-16T00:57:29;101752.63;;;1.47;100.00
5996;BME280;3026;53.612;7.278;2023-03-16T00:59:56;101751.78;;;1.46;100.00
5996;BME280;3026;53.612;7.278;2023-03-16T01:02:23;101748.22;;;1.46;100.00
5996;BME280;3026;53.612;7.278;2023-03-16T01:04:51;101740.34;;;1.43;100.00
5996;BME280;3026;53.612;7.278;2023-03-16T01:07:19;101742.06;;;1.44;100.00
5996;BME280;3026;53.612;7.278;2023-03-16T01:09:46;101736.69;;;1.44;100.00
5996;BME280;3026;53.612;7.278;2023-03-16T01:12:15;101730.47;;;1.43;100.00
5996;BME280;3026;53.612;7.278;2023-03-16T01:14:44;101728.84;;;1.41;100.00
5996;BME280;3026;53.612;7.278;2023-03-16T01:17:12;101729.50;;;1.44;100.00
5996;BME280;3026;53.612;7.278;2023-03-16T01:19:40;101718.84;;;1.43;100.00
5996;BME280;3026;53.612;7.278;2023-03-16T01:22:08;101714.34;;;1.43;100.00
5996;BME280;3026;53.612;7.278;2023-03-16T01:24:36;101700.13;;;1.41;100.00
5996;BME280;3026;53.612;7.278;2023-03-16T01:27:04;101710.78;;;1.43;100.00
5996;BME280;3026;53.612;7.278;2023-03-16T01:29:31;101710.88;;;1.41;100.00
5996;BME280;3026;53.612;7.278;2023-03-16T01:32:00;101706.53;;;1.39;100.00
5996;BME280;3026;53.612;7.278;2023-03-16T01:34:28;101711.91;;;1.39;100.00
5996;BME280;3026;53.612;7.278;2023-03-16T01:36:56;101703.19;;;1.35;100.00
5996;BME280;3026;53.612;7.278;2023-03-16T01:39:23;101704.81;;;1.38;100.00
5996;BME280;3026;53.612;7.278;2023-03-16T01:41:50;101703.06;;;1.37;100.00
5996;BME280;3026;53.612;7.278;2023-03-16T01:44:19;101702.31;;;1.35;100.00
5996;BME280;3026;53.612;7.278;2023-03-16T01:46:48;101705.00;;;1.35;100.00
5996;BME280;3026;53.612;7.278;2023-03-16T01:49:19;101696.94;;;1.35;100.00
5996;BME280;3026;53.612;7.278;2023-03-16T01:51:52;101694.25;;;1.35;100.00
5996;BME280;3026;53.612;7.278;2023-03-16T01:54:22;101690.59;;;1.36;100.00
5996;BME280;3026;53.612;7.278;2023-03-16T01:56:58;101690.59;;;1.36;100.00
5996;BME280;3026;53.612;7.278;2023-03-16T01:59:31;101694.25;;;1.35;100.00
5996;BME280;3026;53.612;7.278;2023-03-16T02:01:59;101688.00;;;1.34;100.00
5996;BME280;3026;53.612;7.278;2023-03-16T02:04:43;101689.75;;;1.35;100.00
5996;BME280;3026;53.612;7.278;2023-03-16T02:07:15;101680.91;;;1.33;100.00
5996;BME280;3026;53.612;7.278;2023-03-16T02:09:44;101672.75;;;1.35;100.00
5996;BME280;3026;53.612;7.278;2023-03-16T02:12:13;101675.34;;;1.36;100.00
5996;BME280;3026;53.612;7.278;2023-03-16T02:14:43;101676.22;;;1.37;100.00
5996;BME280;3026;53.612;7.278;2023-03-16T02:17:10;101661.25;;;1.33;100.00
5996;BME280;3026;53.612;7.278;2023-03-16T02:19:44;101665.47;;;1.37;100.00
5996;BME280;3026;53.612;7.278;2023-03-16T02:22:13;101658.16;;;1.39;100.00
5996;BME280;3026;53.612;7.278;2023-03-16T02:24:41;101658.16;;;1.39;100.00
5996;BME280;3026;53.612;7.278;2023-03-16T02:27:09;101667.03;;;1.41;100.00
5996;BME280;3026;53.612;7.278;2023-03-16T02:30:00;101652.78;;;1.39;100.00
5996;BME280;3026;53.612;7.278;2023-03-16T02:32:29;101647.50;;;1.37;100.00
5996;BME280;3026;53.612;7.278;2023-03-16T02:34:58;101649.22;;;1.38;100.00
5996;BME280;3026;53.612;7.278;2023-03-16T02:37:26;101650.28;;;1.36;100.00
5996;BME280;3026;53.612;7.278;2023-03-16T02:39:52;101646.66;;;1.37;100.00
5996;BME280;3026;53.612;7.278;2023-03-16T02:42:21;101649.34;;;1.37;100.00
5996;BME280;3026;53.612;7.278;2023-03-16T02:44:51;101646.66;;;1.37;100.00
5996;BME280;3026;53.612;7.278;2023-03-16T02:47:26;101642.13;;;1.37;100.00
5996;BME280;3026;53.612;7.278;2023-03-16T02:49:54;101638.59;;;1.37;100.00
5996;BME280;3026;53.612;7.278;2023-03-16T02:52:20;101636.66;;;1.39;100.00
5996;BME280;3026;53.612;7.278;2023-03-16T02:54:47;101631.28;;;1.39;100.00
5996;BME280;3026;53.612;7.278;2023-03-16T02:57:14;101625.91;;;1.39;100.00
5996;BME280;3026;53.612;7.278;2023-03-16T02:59:41;101619.00;;;1.35;100.00
5996;BME280;3026;53.612;7.278;2023-03-16T03:02:07;101634.78;;;1.41;100.00
5996;BME280;3026;53.612;7.278;2023-03-16T03:04:36;101635.63;;;1.41;100.00
5996;BME280;3026;53.612;7.278;2023-03-16T03:07:02;101641.00;;;1.41;100.00
5996;BME280;3026;53.612;7.278;2023-03-16T03:09:30;101636.31;;;1.45;100.00
5996;BME280;3026;53.612;7.278;2023-03-16T03:11:58;101645.13;;;1.47;100.00
5996;BME280;3026;53.612;7.278;2023-03-16T03:14:25;101641.47;;;1.48;100.00
5996;BME280;3026;53.612;7.278;2023-03-16T03:16:53;101640.44;;;1.51;100.00
5996;BME280;3026;53.612;7.278;2023-03-16T03:19:20;101632.28;;;1.52;100.00
5996;BME280;3026;53.612;7.278;2023-03-16T03:21:49;101632.09;;;1.55;100.00
5996;BME280;3026;53.612;7.278;2023-03-16T03:24:16;101623.91;;;1.57;100.00
5996;BME280;3026;53.612;7.278;2023-03-16T03:26:43;101621.13;;;1.58;100.00
5996;BME280;3026;53.612;7.278;2023-03-16T03:29:10;101621.72;;;1.63;100.00
5996;BME280;3026;53.612;7.278;2023-03-16T03:31:37;101619.91;;;1.64;100.00
5996;BME280;3026;53.612;7.278;2023-03-16T03:34:04;101625.19;;;1.65;100.00
5996;BME280;3026;53.612;7.278;2023-03-16T03:36:31;101622.28;;;1.68;100.00
5996;BME280;3026;53.612;7.278;2023-03-16T03:39:00;101622.09;;;1.71;100.00
5996;BME280;3026;53.612;7.278;2023-03-16T03:41:29;101621.06;;;1.74;100.00
5996;BME280;3026;53.612;7.278;2023-03-16T03:43:57;101614.63;;;1.77;100.00
5996;BME280;3026;53.612;7.278;2023-03-16T03:46:24;101598.28;;;1.80;100.00
5996;BME280;3026;53.612;7.278;2023-03-16T03:48:51;101587.31;;;1.83;100.00
5996;BME280;3026;53.612;7.278;2023-03-16T03:51:18;101592.53;;;1.86;100.00
5996;BME280;3026;53.612;7.278;2023-03-16T03:53:44;101593.19;;;1.89;100.00
5996;BME280;3026;53.612;7.278;2023-03-16T03:56:13;101586.72;;;1.92;100.00
5996;BME280;3026;53.612;7.278;2023-03-16T03:58:39;101582.13;;;1.94;100.00
5996;BME280;3026;53.612;7.278;2023-03-16T04:01:06;101578.19;;;1.99;100.00
5996;BME280;3026;53.612;7.278;2023-03-16T04:03:33;101585.19;;;2.02;100.00
5996;BME280;3026;53.612;7.278;2023-03-16T04:06:00;101585.72;;;2.07;100.00
5996;BME280;3026;53.612;7.278;2023-03-16T04:08:26;101598.03;;;2.11;100.00
5996;BME280;3026;53.612;7.278;2023-03-16T04:10:53;101577.16;;;2.15;100.00
5996;BME280;3026;53.612;7.278;2023-03-16T04:13:21;101583.19;;;2.18;100.00
5996;BME280;3026;53.612;7.278;2023-03-16T04:15:48;101581.31;;;2.20;100.00
5996;BME280;3026;53.612;7.278;2023-03-16T04:18:18;101583.03;;;2.21;100.00
5996;BME280;3026;53.612;7.278;2023-03-16T04:20:45;101572.06;;;2.24;100.00
5996;BME280;3026;53.612;7.278;2023-03-16T04:23:12;101568.38;;;2.25;100.00
5996;BME280;3026;53.612;7.278;2023-03-16T04:25:41;101561.06;;;2.27;100.00
5996;BME280;3026;53.612;7.278;2023-03-16T04:28:08;101566.25;;;2.30;100.00
5996;BME280;3026;53.612;7.278;2023-03-16T04:30:36;101553.75;;;2.29;100.00
5996;BME280;3026;53.612;7.278;2023-03-16T04:33:03;101548.19;;;2.32;100.00
5996;BME280;3026;53.612;7.278;2023-03-16T04:35:30;101553.38;;;2.36;100.00
5996;BME280;3026;53.612;7.278;2023-03-16T04:37:57;101555.09;;;2.37;100.00
5996;BME280;3026;53.612;7.278;2023-03-16T04:40:24;101549.69;;;2.37;100.00
5996;BME280;3026;53.612;7.278;2023-03-16T04:42:50;101535.28;;;2.38;100.00
5996;BME280;3026;53.612;7.278;2023-03-16T04:45:17;101537.00;;;2.39;100.00
5996;BME280;3026;53.612;7.278;2023-03-16T04:47:45;101528.94;;;2.39;100.00
5996;BME280;3026;53.612;7.278;2023-03-16T04:50:13;101529.69;;;2.41;100.00
5996;BME280;3026;53.612;7.278;2023-03-16T04:52:40;101536.78;;;2.42;100.00
5996;BME280;3026;53.612;7.278;2023-03-16T04:55:07;101521.81;;;2.38;100.00
5996;BME280;3026;53.612;7.278;2023-03-16T04:57:34;101522.19;;;2.46;100.00
5996;BME280;3026;53.612;7.278;2023-03-16T05:00:02;101515.81;;;2.47;100.00
5996;BME280;3026;53.612;7.278;2023-03-16T05:02:34;101509.47;;;2.48;100.00
5996;BME280;3026;53.612;7.278;2023-03-16T05:05:03;101507.31;;;2.53;100.00
5996;BME280;3026;53.612;7.278;2023-03-16T05:07:31;101506.34;;;2.54;100.00
5996;BME280;3026;53.612;7.278;2023-03-16T05:09:58;101505.41;;;2.55;100.00
5996;BME280;3026;53.612;7.278;2023-03-16T05:12:25;101498.47;;;2.51;100.00
5996;BME280;3026;53.612;7.278;2023-03-16T05:14:51;101496.13;;;2.59;100.00
5996;BME280;3026;53.612;7.278;2023-03-16T05:17:18;101492.47;;;2.60;100.00
5996;BME280;3026;53.612;7.278;2023-03-16T05:19:46;101499.34;;;2.64;100.00
5996;BME280;3026;53.612;7.278;2023-03-16T05:22:14;101508.19;;;2.66;100.00
5996;BME280;3026;53.612;7.278;2023-03-16T05:24:41;101502.81;;;2.66;100.00
5996;BME280;3026;53.612;7.278;2023-03-16T05:27:08;101501.09;;;2.65;100.00
5996;BME280;3026;53.612;7.278;2023-03-16T05:29:35;101508.00;;;2.69;100.00
5996;BME280;3026;53.612;7.278;2023-03-16T05:32:01;101516.84;;;2.71;100.00
5996;BME280;3026;53.612;7.278;2023-03-16T05:34:28;101502.81;;;2.66;100.00
5996;BME280;3026;53.612;7.278;2023-03-16T05:36:56;101521.13;;;2.74;100.00
5996;BME280;3026;53.612;7.278;2023-03-16T05:39:24;101527.38;;;2.74;100.00
5996;BME280;3026;53.612;7.278;2023-03-16T05:41:50;101524.59;;;2.76;100.00
5996;BME280;3026;53.612;7.278;2023-03-16T05:44:19;101522.75;;;2.76;100.00
5996;BME280;3026;53.612;7.278;2023-03-16T05:46:46;101512.75;;;2.78;100.00
5996;BME280;3026;53.612;7.278;2023-03-16T05:49:13;101514.47;;;2.79;100.00
5996;BME280;3026;53.612;7.278;2023-03-16T05:51:40;101515.13;;;2.83;100.00
5996;BME280;3026;53.612;7.278;2023-03-16T05:54:07;101511.56;;;2.82;100.00
5996;BME280;3026;53.612;7.278;2023-03-16T05:56:35;101506.94;;;2.84;100.00
5996;BME280;3026;53.612;7.278;2023-03-16T05:59:03;101515.75;;;2.86;100.00
5996;BME280;3026;53.612;7.278;2023-03-16T06:01:29;101510.38;;;2.86;100.00
5996;BME280;3026;53.612;7.278;2023-03-16T06:03:58;101502.41;;;2.85;100.00
5996;BME280;3026;53.612;7.278;2023-03-16T06:06:26;101498.63;;;2.87;100.00
5996;BME280;3026;53.612;7.278;2023-03-16T06:08:53;101502.09;;;2.89;100.00
5996;BME280;3026;53.612;7.278;2023-03-16T06:11:23;101508.88;;;2.95;100.00
5996;BME280;3026;53.612;7.278;2023-03-16T06:13:51;101506.06;;;2.97;100.00
5996;BME280;3026;53.612;7.278;2023-03-16T06:16:18;101501.66;;;2.96;100.00
5996;BME280;3026;53.612;7.278;2023-03-16T06:18:45;101504.34;;;2.96;100.00
5996;BME280;3026;53.612;7.278;2023-03-16T06:21:11;101509.50;;;2.99;100.00
5996;BME280;3026;53.612;7.278;2023-03-16T06:23:38;101503.94;;;3.02;100.00
5996;BME280;3026;53.612;7.278;2023-03-16T06:26:05;101502.00;;;3.04;100.00
5996;BME280;3026;53.612;7.278;2023-03-16T06:28:32;101499.19;;;3.05;100.00
5996;BME280;3026;53.612;7.278;2023-03-16T06:31:00;101500.03;;;3.06;100.00
5996;BME280;3026;53.612;7.278;2023-03-16T06:33:27;101503.50;;;3.08;100.00
5996;BME280;3026;53.612;7.278;2023-03-16T06:35:54;101498.09;;;3.08;100.00
5996;BME280;3026;53.612;7.278;2023-03-16T06:38:20;101508.47;;;3.14;100.00
5996;BME280;3026;53.612;7.278;2023-03-16T06:40:50;101503.94;;;3.14;100.00
5996;BME280;3026;53.612;7.278;2023-03-16T06:43:17;101501.97;;;3.16;100.00
5996;BME280;3026;53.612;7.278;2023-03-16T06:45:44;101499.19;;;3.18;100.00
5996;BME280;3026;53.612;7.278;2023-03-16T06:48:12;101493.56;;;3.21;100.00
5996;BME280;3026;53.612;7.278;2023-03-16T06:50:39;101503.38;;;3.22;100.00
5996;BME280;3026;53.612;7.278;2023-03-16T06:53:06;101500.56;;;3.23;100.00
5996;BME280;3026;53.612;7.278;2023-03-16T06:55:33;101500.34;;;3.27;100.00
5996;BME280;3026;53.612;7.278;2023-03-16T06:57:59;101495.16;;;3.23;100.00
5996;BME280;3026;53.612;7.278;2023-03-16T07:00:26;101499.16;;;3.31;100.00
5996;BME280;3026;53.612;7.278;2023-03-16T07:02:55;101509.81;;;3.32;100.00
5996;BME280;3026;53.612;7.278;2023-03-16T07:05:23;101514.03;;;3.36;100.00
5996;BME280;3026;53.612;7.278;2023-03-16T07:07:49;101511.25;;;3.38;100.00
5996;BME280;3026;53.612;7.278;2023-03-16T07:10:17;101513.59;;;3.42;100.00
5996;BME280;3026;53.612;7.278;2023-03-16T07:12:44;101508.19;;;3.42;100.00
5996;BME280;3026;53.612;7.278;2023-03-16T07:15:11;101516.84;;;3.47;100.00
5996;BME280;3026;53.612;7.278;2023-03-16T07:17:39;101504.84;;;3.51;100.00
5996;BME280;3026;53.612;7.278;2023-03-16T07:20:08;101507.31;;;3.55;100.00
5996;BME280;3026;53.612;7.278;2023-03-16T07:22:37;101504.38;;;3.58;100.00
5996;BME280;3026;53.612;7.278;2023-03-16T07:25:06;101510.56;;;3.60;100.00
5996;BME280;3026;53.612;7.278;2023-03-16T07:27:33;101511.31;;;3.62;100.00
5996;BME280;3026;53.612;7.278;2023-03-16T07:30:00;101509.84;;;3.69;100.00
5996;BME280;3026;53.612;7.278;2023-03-16T07:32:29;101510.41;;;3.74;100.00
5996;BME280;3026;53.612;7.278;2023-03-16T07:34:56;101512.88;;;3.77;100.00
5996;BME280;3026;53.612;7.278;2023-03-16T07:37:24;101513.50;;;3.80;100.00
5996;BME280;3026;53.612;7.278;2023-03-16T07:39:52;101509.63;;;3.85;100.00
5996;BME280;3026;53.612;7.278;2023-03-16T07:42:19;101503.13;;;3.87;100.00
5996;BME280;3026;53.612;7.278;2023-03-16T07:44:47;101507.31;;;3.91;100.00
5996;BME280;3026;53.612;7.278;2023-03-16T07:47:14;101504.41;;;3.94;100.00
5996;BME280;3026;53.612;7.278;2023-03-16T07:49:40;101508.72;;;3.97;100.00
5996;BME280;3026;53.612;7.278;2023-03-16T07:52:09;101500.50;;;3.98;100.00
5996;BME280;3026;53.612;7.278;2023-03-16T07:54:38;101510.81;;;4.04;100.00
5996;BME280;3026;53.612;7.278;2023-03-16T07:57:07;101514.28;;;4.06;100.00
5996;BME280;3026;53.612;7.278;2023-03-16T07:59:34;101511.47;;;4.08;100.00
5996;BME280;3026;53.612;7.278;2023-03-16T08:02:01;101512.09;;;4.12;100.00
5996;BME280;3026;53.612;7.278;2023-03-16T08:04:28;101522.66;;;4.15;100.00
5996;BME280;3026;53.612;7.278;2023-03-16T08:06:55;101518.97;;;4.16;100.00
5996;BME280;3026;53.612;7.278;2023-03-16T08:09:25;101514.44;;;4.16;100.00
5996;BME280;3026;53.612;7.278;2023-03-16T08:11:52;101518.97;;;4.16;100.00
5996;BME280;3026;53.612;7.278;2023-03-16T08:14:20;101516.28;;;4.16;100.00
5996;BME280;3026;53.612;7.278;2023-03-16T08:16:50;101511.84;;;4.15;100.00
5996;BME280;3026;53.612;7.278;2023-03-16T08:19:19;101510.78;;;4.17;100.00
5996;BME280;3026;53.612;7.278;2023-03-16T08:21:46;101509.91;;;4.17;100.00
5996;BME280;3026;53.612;7.278;2023-03-16T08:24:13;101514.44;;;4.16;100.00
5996;BME280;3026;53.612;7.278;2023-03-16T08:26:40;101515.28;;;4.17;100.00
5996;BME280;3026;53.612;7.278;2023-03-16T08:29:06;101510.78;;;4.17;100.00
5996;BME280;3026;53.612;7.278;2023-03-16T08:31:35;101509.69;;;4.20;100.00
5996;BME280;3026;53.612;7.278;2023-03-16T08:34:02;101503.44;;;4.19;100.00
5996;BME280;3026;53.612;7.278;2023-03-16T08:36:29;101513.13;;;4.22;100.00
5996;BME280;3026;53.612;7.278;2023-03-16T08:38:56;101519.38;;;4.22;100.00
5996;BME280;3026;53.612;7.278;2023-03-16T08:41:23;101509.44;;;4.23;100.00
5996;BME280;3026;53.612;7.278;2023-03-16T08:43:49;101513.88;;;4.24;100.00
5996;BME280;3026;53.612;7.278;2023-03-16T08:46:17;101508.59;;;4.22;100.00
5996;BME280;3026;53.612;7.278;2023-03-16T08:48:45;101512.66;;;4.28;100.00
5996;BME280;3026;53.612;7.278;2023-03-16T08:51:12;101516.56;;;4.24;100.00
5996;BME280;3026;53.612;7.278;2023-03-16T08:53:39;101512.88;;;4.25;100.00
5996;BME280;3026;53.612;7.278;2023-03-16T08:56:08;101505.78;;;4.24;100.00
5996;BME280;3026;53.612;7.278;2023-03-16T08:58:37;101507.50;;;4.25;100.00
5996;BME280;3026;53.612;7.278;2023-03-16T09:01:06;101508.22;;;4.27;100.00
5996;BME280;3026;53.612;7.278;2023-03-16T09:03:34;101514.28;;;4.30;100.00
5996;BME280;3026;53.612;7.278;2023-03-16T09:06:04;101506.19;;;4.30;100.00
5996;BME280;3026;53.612;7.278;2023-03-16T09:08:32;101505.09;;;4.33;100.00
5996;BME280;3026;53.612;7.278;2023-03-16T09:11:00;101501.41;;;4.34;100.00
5996;BME280;3026;53.612;7.278;2023-03-16T09:13:27;101506.56;;;4.37;100.00
5996;BME280;3026;53.612;7.278;2023-03-16T09:15:54;101508.28;;;4.38;100.00
5996;BME280;3026;53.612;7.278;2023-03-16T09:18:22;101500.94;;;4.40;100.00
5996;BME280;3026;53.612;7.278;2023-03-16T09:20:50;101496.50;;;4.39;100.00
5996;BME280;3026;53.612;7.278;2023-03-16T09:23:18;101492.50;;;4.45;100.00
5996;BME280;3026;53.612;7.278;2023-03-16T09:25:45;101495.31;;;4.43;100.00
5996;BME280;3026;53.612;7.278;2023-03-16T09:28:12;101492.88;;;4.51;100.00
5996;BME280;3026;53.612;7.278;2023-03-16T09:30:39;101476.44;;;4.54;100.00
5996;BME280;3026;53.612;7.278;2023-03-16T09:33:06;101473.88;;;4.53;100.00
5996;BME280;3026;53.612;7.278;2023-03-16T09:35:33;101491.31;;;4.60;100.00
5996;BME280;3026;53.612;7.278;2023-03-16T09:38:01;101475.75;;;4.63;100.00
5996;BME280;3026;53.612;7.278;2023-03-16T09:40:30;101478.47;;;4.75;100.00
5996;BME280;3026;53.612;7.278;2023-03-16T09:43:17;101477.13;;;4.80;100.00
5996;BME280;3026;53.612;7.278;2023-03-16T09:45:51;101488.53;;;4.84;100.00
5996;BME280;3026;53.612;7.278;2023-03-16T09:48:22;101474.69;;;4.88;100.00
5996;BME280;3026;53.612;7.278;2023-03-16T09:50:51;101477.13;;;4.91;100.00
5996;BME280;3026;53.612;7.278;2023-03-16T09:53:24;101467.91;;;4.94;100.00
5996;BME280;3026;53.612;7.278;2023-03-16T09:55:57;101473.31;;;4.94;100.00
5996;BME280;3026;53.612;7.278;2023-03-16T09:58:26;101475.69;;;4.98;100.00
5996;BME280;3026;53.612;7.278;2023-03-16T10:00:59;101476.28;;;5.02;100.00
5996;BME280;3026;53.612;7.278;2023-03-16T10:03:38;101462.03;;;5.00;100.00
5996;BME280;3026;53.612;7.278;2023-03-16T10:06:11;101477.50;;;5.09;100.00
5996;BME280;3026;53.612;7.278;2023-03-16T10:08:40;101471.25;;;5.09;100.00
5996;BME280;3026;53.612;7.278;2023-03-16T10:11:19;101464.97;;;5.08;100.00
5996;BME280;3026;53.612;7.278;2023-03-16T10:13:49;101465.50;;;5.13;100.00
5996;BME280;3026;53.612;7.278;2023-03-16T10:16:19;101457.38;;;5.13;100.00
5996;BME280;3026;53.612;7.278;2023-03-16T10:18:49;101455.16;;;5.18;100.00
5996;BME280;3026;53.612;7.278;2023-03-16T10:21:18;101454.94;;;5.21;100.00
5996;BME280;3026;53.612;7.278;2023-03-16T10:23:46;101454.69;;;5.24;100.00
5996;BME280;3026;53.612;7.278;2023-03-16T10:26:21;101447.91;;;5.30;100.00
5996;BME280;3026;53.612;7.278;2023-03-16T10:28:50;101435.00;;;5.34;100.00
5996;BME280;3026;53.612;7.278;2023-03-16T10:31:19;101436.34;;;5.39;100.00
5996;BME280;3026;53.612;7.278;2023-03-16T10:33:48;101439.41;;;5.46;100.00
5996;BME280;3026;53.612;7.278;2023-03-16T10:36:23;101431.31;;;5.46;100.00
5996;BME280;3026;53.612;7.278;2023-03-16T10:38:52;101433.13;;;5.56;100.00
5996;BME280;3026;53.612;7.278;2023-03-16T10:41:23;101428.91;;;5.64;100.00
5996;BME280;3026;53.612;7.278;2023-03-16T10:43:54;101432.97;;;5.69;100.00
5996;BME280;3026;53.612;7.278;2023-03-16T10:46:22;101419.91;;;5.74;100.00
5996;BME280;3026;53.612;7.278;2023-03-16T10:48:53;101430.47;;;5.77;100.00
5996;BME280;3026;53.612;7.278;2023-03-16T10:51:26;101432.56;;;5.85;100.00
5996;BME280;3026;53.612;7.278;2023-03-16T10:53:56;101422.59;;;5.85;100.00
5996;BME280;3026;53.612;7.278;2023-03-16T10:56:31;101418.44;;;5.93;100.00
5996;BME280;3026;53.612;7.278;2023-03-16T10:58:59;101419.88;;;5.97;100.00
5996;BME280;3026;53.612;7.278;2023-03-16T11:01:28;101423.03;;;6.02;100.00
5996;BME280;3026;53.612;7.278;2023-03-16T11:03:57;101411.72;;;6.08;100.00
5996;BME280;3026;53.612;7.278;2023-03-16T11:06:26;101413.16;;;6.12;100.00
5996;BME280;3026;53.612;7.278;2023-03-16T11:09:02;101412.78;;;6.17;100.00
5996;BME280;3026;53.612;7.278;2023-03-16T11:11:31;101398.13;;;6.19;100.00
5996;BME280;3026;53.612;7.278;2023-03-16T11:14:01;101397.00;;;6.22;100.00
5996;BME280;3026;53.612;7.278;2023-03-16T11:16:30;101400.56;;;6.22;100.00
5996;BME280;3026;53.612;7.278;2023-03-16T11:19:05;101400.19;;;6.27;100.00
5996;BME280;3026;53.612;7.278;2023-03-16T11:21:45;101388.50;;;6.26;100.00
5996;BME280;3026;53.612;7.278;2023-03-16T11:24:19;101397.34;;;6.28;100.00
5996;BME280;3026;53.612;7.278;2023-03-16T11:26:53;101375.34;;;6.22;100.00
5996;BME280;3026;53.612;7.278;2023-03-16T11:29:23;101386.66;;;6.27;100.00
5996;BME280;3026;53.612;7.278;2023-03-16T11:31:53;101393.91;;;6.26;100.00
5996;BME280;3026;53.612;7.278;2023-03-16T11:34:26;101386.50;;;6.28;100.00
5996;BME280;3026;53.612;7.278;2023-03-16T11:36:55;101377.41;;;6.29;100.00
5996;BME280;3026;53.612;7.278;2023-03-16T11:39:30;101374.97;;;6.26;100.00
5996;BME280;3026;53.612;7.278;2023-03-16T11:44:55;101361.28;;;6.28;100.00
5996;BME280;3026;53.612;7.278;2023-03-16T11:47:44;101358.03;;;6.34;100.00
5996;BME280;3026;53.612;7.278;2023-03-16T11:50:17;101358.63;;;6.37;100.00
5996;BME280;3026;53.612;7.278;2023-03-16T11:52:54;101358.38;;;6.40;100.00
5996;BME280;3026;53.612;7.278;2023-03-16T11:55:32;101346.53;;;6.41;100.00
5996;BME280;3026;53.612;7.278;2023-03-16T11:58:17;101345.03;;;6.49;100.00
5996;BME280;3026;53.612;7.278;2023-03-16T12:00:51;101351.88;;;6.53;100.00
5996;BME280;3026;53.612;7.278;2023-03-16T12:03:49;101344.47;;;6.55;100.00
5996;BME280;3026;53.612;7.278;2023-03-16T12:06:30;101345.31;;;6.55;100.00
5996;BME280;3026;53.612;7.278;2023-03-16T12:12:21;101334.81;;;6.62;100.00
5996;BME280;3026;53.612;7.278;2023-03-16T12:14:55;101320.28;;;6.63;100.00
5996;BME280;3026;53.612;7.278;2023-03-16T12:17:29;101327.06;;;6.57;100.00
5996;BME280;3026;53.612;7.278;2023-03-16T12:20:01;101325.94;;;6.60;100.00
5996;BME280;3026;53.612;7.278;2023-03-16T12:22:34;101313.16;;;6.62;100.00
5996;BME280;3026;53.612;7.278;2023-03-16T12:25:03;101310.56;;;6.60;100.00
5996;BME280;3026;53.612;7.278;2023-03-16T12:27:40;101308.97;;;6.58;100.00
5996;BME280;3026;53.612;7.278;2023-03-16T12:30:23;101295.69;;;6.55;100.00
5996;BME280;3026;53.612;7.278;2023-03-16T12:32:56;101312.94;;;6.54;100.00
5996;BME280;3026;53.612;7.278;2023-03-16T12:35:35;101304.09;;;6.52;100.00
5996;BME280;3026;53.612;7.278;2023-03-16T12:38:30;101297.97;;;6.50;100.00
5996;BME280;3026;53.612;7.278;2023-03-16T12:41:15;101294.25;;;6.51;100.00
5996;BME280;3026;53.612;7.278;2023-03-16T12:46:43;101288.13;;;6.49;100.00
5996;BME280;3026;53.612;7.278;2023-03-16T12:49:15;101286.38;;;6.48;100.00
5996;BME280;3026;53.612;7.278;2023-03-16T12:51:43;101278.53;;;6.44;100.00
5996;BME280;3026;53.612;7.278;2023-03-16T12:54:20;101273.69;;;6.48;100.00
5996;BME280;3026;53.612;7.278;2023-03-16T12:56:49;101258.56;;;6.46;100.00
5996;BME280;3026;53.612;7.278;2023-03-16T12:59:19;101268.03;;;6.51;100.00
5996;BME280;3026;53.612;7.278;2023-03-16T13:01:50;101258.75;;;6.54;100.00
5996;BME280;3026;53.612;7.278;2023-03-16T13:04:20;101246.94;;;6.55;100.00
5996;BME280;3026;53.612;7.278;2023-03-16T13:06:50;101244.22;;;6.55;100.00
5996;BME280;3026;53.612;7.278;2023-03-16T13:09:27;101232.38;;;6.56;100.00
5996;BME280;3026;53.612;7.278;2023-03-16T13:11:56;101220.97;;;6.52;100.00
5996;BME280;3026;53.612;7.278;2023-03-16T13:14:35;101225.25;;;6.55;100.00
5996;BME280;3026;53.612;7.278;2023-03-16T13:17:22;101219.84;;;6.55;100.00
5996;BME280;3026;53.612;7.278;2023-03-16T13:20:02;101221.00;;;6.62;100.00
5996;BME280;3026;53.612;7.278;2023-03-16T13:22:41;101211.88;;;6.63;100.00
5996;BME280;3026;53.612;7.278;2023-03-16T13:25:15;101227.31;;;6.72;100.00
5996;BME280;3026;53.612;7.278;2023-03-16T13:27:45;101233.88;;;6.79;100.00
5996;BME280;3026;53.612;7.278;2023-03-16T13:30:19;101228.19;;;6.82;100.00